sensor_id;sensor_type;location;lat;lon;timestamp;P1;durP1;ratioP1;P2;durP2;ratioP2
15043;SDS011;7619;48.562;8.910;2023-03-12T00:01:16;10.20;;;5.33;;
15043;SDS011;7619;48.562;8.910;2023-03-12T00:03:45;10.83;;;5.07;;
15043;SDS011;7619;48.562;8.910;2023-03-12T00:06:13;6.57;;;4.03;;
15043;SDS011;7619;48.562;8.910;2023-03-12T00:08:43;5.90;;;4.30;;
15043;SDS011;7619;48.562;8.910;2023-03-12T00:11:11;5.93;;;3.93;;
15043;SDS011;7619;48.562;8.910;2023-03-12T00:13:39;5.57;;;3.77;;
15043;SDS011;7619;48.562;8.910;2023-03-12T00:16:09;6.60;;;4.47;;
15043;SDS011;7619;48.562;8.910;2023-03-12T00:18:39;8.87;;;4.70;;
15043;SDS011;7619;48.562;8.910;2023-03-12T00:21:08;9.53;;;4.90;;
15043;SDS011;7619;48.562;8.910;2023-03-12T00:23:37;10.03;;;5.23;;
15043;SDS011;7619;48.562;8.910;2023-03-12T00:26:06;7.47;;;4.67;;
15043;SDS011;7619;48.562;8.910;2023-03-12T00:28:34;6.97;;;4.40;;
15043;SDS011;7619;48.562;8.910;2023-03-12T00:31:11;7.80;;;4.67;;
15043;SDS011;7619;48.562;8.910;2023-03-12T00:33:41;7.70;;;4.33;;
15043;SDS011;7619;48.562;8.910;2023-03-12T00:36:09;8.37;;;5.03;;
15043;SDS011;7619;48.562;8.910;2023-03-12T00:38:37;6.60;;;4.00;;
15043;SDS011;7619;48.562;8.910;2023-03-12T00:41:06;6.17;;;4.30;;
15043;SDS011;7619;48.562;8.910;2023-03-12T00:43:35;7.23;;;4.37;;
15043;SDS011;7619;48.562;8.910;2023-03-12T00:46:04;10.90;;;4.13;;
15043;SDS011;7619;48.562;8.910;2023-03-12T00:48:32;6.57;;;4.37;;
15043;SDS011;7619;48.562;8.910;2023-03-12T00:51:00;7.37;;;4.50;;
15043;SDS011;7619;48.562;8.910;2023-03-12T00:53:28;9.33;;;4.17;;
15043;SDS011;7619;48.562;8.910;2023-03-12T00:55:56;7.43;;;4.33;;
15043;SDS011;7619;48.562;8.910;2023-03-12T00:58:24;7.30;;;3.83;;
15043;SDS011;7619;48.562;8.910;2023-03-12T01:00:52;6.00;;;3.73;;
15043;SDS011;7619;48.562;8.910;2023-03-12T01:03:20;7.47;;;3.60;;
15043;SDS011;7619;48.562;8.910;2023-03-12T01:05:48;5.93;;;3.73;;
15043;SDS011;7619;48.562;8.910;2023-03-12T01:08:18;10.27;;;4.23;;
15043;SDS011;7619;48.562;8.910;2023-03-12T01:10:48;5.47;;;3.90;;
15043;SDS011;7619;48.562;8.910;2023-03-12T01:13:16;7.80;;;4.00;;
15043;SDS011;7619;48.562;8.910;2023-03-12T01:15:44;6.57;;;3.33;;
15043;SDS011;7619;48.562;8.910;2023-03-12T01:18:12;5.27;;;3.27;;
15043;SDS011;7619;48.562;8.910;2023-03-12T01:20:40;8.13;;;3.53;;
15043;SDS011;7619;48.562;8.910;2023-03-12T01:23:08;6.73;;;3.67;;
15043;SDS011;7619;48.562;8.910;2023-03-12T01:25:36;5.03;;;3.20;;
15043;SDS011;7619;48.562;8.910;2023-03-12T01:28:05;11.23;;;3.83;;
15043;SDS011;7619;48.562;8.910;2023-03-12T01:30:32;7.13;;;3.33;;
15043;SDS011;7619;48.562;8.910;2023-03-12T01:33:01;5.30;;;3.27;;
15043;SDS011;7619;48.562;8.910;2023-03-12T01:35:34;5.77;;;3.53;;
15043;SDS011;7619;48.562;8.910;2023-03-12T01:38:02;7.00;;;4.03;;
15043;SDS011;7619;48.562;8.910;2023-03-12T01:40:33;7.90;;;4.10;;
15043;SDS011;7619;48.562;8.910;2023-03-12T01:43:21;9.17;;;4.93;;
15043;SDS011;7619;48.562;8.910;2023-03-12T01:46:03;6.80;;;3.73;;
15043;SDS011;7619;48.562;8.910;2023-03-12T01:48:33;12.23;;;5.80;;
15043;SDS011;7619;48.562;8.910;2023-03-12T01:51:01;10.17;;;5.30;;
15043;SDS011;7619;48.562;8.910;2023-03-12T01:53:28;7.53;;;5.13;;
15043;SDS011;7619;48.562;8.910;2023-03-12T01:55:59;10.23;;;5.30;;
15043;SDS011;7619;48.562;8.910;2023-03-12T01:58:27;9.87;;;5.60;;
15043;SDS011;7619;48.562;8.910;2023-03-12T02:00:57;7.57;;;5.23;;
15043;SDS011;7619;48.562;8.910;2023-03-12T02:03:27;9.40;;;5.37;;
15043;SDS011;7619;48.562;8.910;2023-03-12T02:05:57;9.17;;;5.77;;
15043;SDS011;7619;48.562;8.910;2023-03-12T02:08:24;8.20;;;5.10;;
15043;SDS011;7619;48.562;8.910;2023-03-12T02:10:53;8.93;;;5.20;;
15043;SDS011;7619;48.562;8.910;2023-03-12T02:13:21;10.20;;;4.90;;
15043;SDS011;7619;48.562;8.910;2023-03-12T02:15:49;5.83;;;4.60;;
15043;SDS011;7619;48.562;8.910;2023-03-12T02:18:17;5.93;;;4.60;;
15043;SDS011;7619;48.562;8.910;2023-03-12T02:20:47;18.80;;;8.37;;
15043;SDS011;7619;48.562;8.910;2023-03-12T02:23:22;14.57;;;8.00;;
15043;SDS011;7619;48.562;8.910;2023-03-12T02:25:49;11.27;;;4.93;;
15043;SDS011;7619;48.562;8.910;2023-03-12T02:28:20;9.27;;;4.47;;
15043;SDS011;7619;48.562;8.910;2023-03-12T02:30:51;5.37;;;3.77;;
15043;SDS011;7619;48.562;8.910;2023-03-12T02:33:24;6.60;;;4.00;;
15043;SDS011;7619;48.562;8.910;2023-03-12T02:35:53;5.53;;;3.80;;
15043;SDS011;7619;48.562;8.910;2023-03-12T02:38:30;6.47;;;4.20;;
15043;SDS011;7619;48.562;8.910;2023-03-12T02:41:00;8.07;;;4.07;;
15043;SDS011;7619;48.562;8.910;2023-03-12T02:43:31;8.83;;;4.93;;
15043;SDS011;7619;48.562;8.910;2023-03-12T02:46:00;4.80;;;3.53;;
15043;SDS011;7619;48.562;8.910;2023-03-12T02:48:30;8.50;;;3.87;;
15043;SDS011;7619;48.562;8.910;2023-03-12T02:50:58;3.73;;;3.37;;
15043;SDS011;7619;48.562;8.910;2023-03-12T02:53:26;5.47;;;3.60;;
15043;SDS011;7619;48.562;8.910;2023-03-12T02:55:54;4.70;;;3.90;;
15043;SDS011;7619;48.562;8.910;2023-03-12T02:58:22;8.00;;;3.60;;
15043;SDS011;7619;48.562;8.910;2023-03-12T03:00:50;7.03;;;3.60;;
15043;SDS011;7619;48.562;8.910;2023-03-12T03:03:18;6.37;;;3.47;;
15043;SDS011;7619;48.562;8.910;2023-03-12T03:05:47;8.43;;;3.93;;
15043;SDS011;7619;48.562;8.910;2023-03-12T03:08:15;4.50;;;3.33;;
15043;SDS011;7619;48.562;8.910;2023-03-12T03:10:44;6.87;;;3.23;;
15043;SDS011;7619;48.562;8.910;2023-03-12T03:13:12;5.03;;;3.20;;
15043;SDS011;7619;48.562;8.910;2023-03-12T03:15:40;7.13;;;3.50;;
15043;SDS011;7619;48.562;8.910;2023-03-12T03:18:08;5.53;;;3.43;;
15043;SDS011;7619;48.562;8.910;2023-03-12T03:20:36;7.23;;;3.57;;
15043;SDS011;7619;48.562;8.910;2023-03-12T03:23:04;6.00;;;3.47;;
15043;SDS011;7619;48.562;8.910;2023-03-12T03:25:32;5.07;;;3.60;;
15043;SDS011;7619;48.562;8.910;2023-03-12T03:28:00;5.67;;;3.20;;
15043;SDS011;7619;48.562;8.910;2023-03-12T03:30:28;5.40;;;3.17;;
15043;SDS011;7619;48.562;8.910;2023-03-12T03:32:56;6.73;;;3.77;;
15043;SDS011;7619;48.562;8.910;2023-03-12T03:35:24;3.80;;;3.20;;
15043;SDS011;7619;48.562;8.910;2023-03-12T03:37:53;7.50;;;3.53;;
15043;SDS011;7619;48.562;8.910;2023-03-12T03:40:22;8.93;;;2.93;;
15043;SDS011;7619;48.562;8.910;2023-03-12T03:42:50;4.93;;;3.43;;
15043;SDS011;7619;48.562;8.910;2023-03-12T03:45:19;4.67;;;3.37;;
15043;SDS011;7619;48.562;8.910;2023-03-12T03:47:46;5.60;;;3.87;;
15043;SDS011;7619;48.562;8.910;2023-03-12T03:50:16;4.17;;;3.20;;
15043;SDS011;7619;48.562;8.910;2023-03-12T03:52:44;9.30;;;4.07;;
15043;SDS011;7619;48.562;8.910;2023-03-12T03:55:12;5.87;;;3.10;;
15043;SDS011;7619;48.562;8.910;2023-03-12T03:57:40;7.13;;;4.50;;
15043;SDS011;7619;48.562;8.910;2023-03-12T04:00:09;9.37;;;4.27;;
15043;SDS011;7619;48.562;8.910;2023-03-12T04:02:38;7.63;;;3.73;;
15043;SDS011;7619;48.562;8.910;2023-03-12T04:05:08;4.07;;;3.40;;
15043;SDS011;7619;48.562;8.910;2023-03-12T04:07:37;4.07;;;2.97;;
15043;SDS011;7619;48.562;8.910;2023-03-12T04:10:08;9.60;;;4.07;;
15043;SDS011;7619;48.562;8.910;2023-03-12T04:12:37;3.93;;;3.40;;
15043;SDS011;7619;48.562;8.910;2023-03-12T04:15:06;5.33;;;3.50;;
15043;SDS011;7619;48.562;8.910;2023-03-12T04:17:33;5.50;;;3.13;;
15043;SDS011;7619;48.562;8.910;2023-03-12T04:20:03;6.13;;;3.83;;
15043;SDS011;7619;48.562;8.910;2023-03-12T04:22:33;5.60;;;3.93;;
15043;SDS011;7619;48.562;8.910;2023-03-12T04:25:01;5.97;;;4.33;;
15043;SDS011;7619;48.562;8.910;2023-03-12T04:27:29;6.27;;;3.63;;
15043;SDS011;7619;48.562;8.910;2023-03-12T04:29:57;6.43;;;4.33;;
15043;SDS011;7619;48.562;8.910;2023-03-12T04:32:26;8.53;;;4.07;;
15043;SDS011;7619;48.562;8.910;2023-03-12T04:34:55;7.00;;;4.40;;
15043;SDS011;7619;48.562;8.910;2023-03-12T04:37:23;6.77;;;4.00;;
15043;SDS011;7619;48.562;8.910;2023-03-12T04:39:52;7.60;;;3.87;;
15043;SDS011;7619;48.562;8.910;2023-03-12T04:42:21;6.37;;;4.27;;
15043;SDS011;7619;48.562;8.910;2023-03-12T04:44:49;6.07;;;3.43;;
15043;SDS011;7619;48.562;8.910;2023-03-12T04:47:18;4.63;;;3.03;;
15043;SDS011;7619;48.562;8.910;2023-03-12T04:49:47;5.27;;;3.80;;
15043;SDS011;7619;48.562;8.910;2023-03-12T04:52:16;5.00;;;3.97;;
15043;SDS011;7619;48.562;8.910;2023-03-12T04:54:46;6.53;;;4.13;;
15043;SDS011;7619;48.562;8.910;2023-03-12T04:57:14;7.47;;;3.83;;
15043;SDS011;7619;48.562;8.910;2023-03-12T04:59:42;4.40;;;4.00;;
15043;SDS011;7619;48.562;8.910;2023-03-12T05:02:10;5.33;;;3.90;;
15043;SDS011;7619;48.562;8.910;2023-03-12T05:04:40;5.20;;;4.10;;
15043;SDS011;7619;48.562;8.910;2023-03-12T05:07:08;7.07;;;3.23;;
15043;SDS011;7619;48.562;8.910;2023-03-12T05:09:37;9.07;;;3.93;;
15043;SDS011;7619;48.562;8.910;2023-03-12T05:12:06;4.33;;;3.80;;
15043;SDS011;7619;48.562;8.910;2023-03-12T05:14:34;4.37;;;3.23;;
15043;SDS011;7619;48.562;8.910;2023-03-12T05:17:05;4.80;;;3.70;;
15043;SDS011;7619;48.562;8.910;2023-03-12T05:19:33;4.77;;;3.33;;
15043;SDS011;7619;48.562;8.910;2023-03-12T05:22:02;6.13;;;4.17;;
15043;SDS011;7619;48.562;8.910;2023-03-12T05:24:39;4.07;;;3.23;;
15043;SDS011;7619;48.562;8.910;2023-03-12T05:27:08;6.37;;;4.17;;
15043;SDS011;7619;48.562;8.910;2023-03-12T05:29:36;4.50;;;3.30;;
15043;SDS011;7619;48.562;8.910;2023-03-12T05:32:05;5.93;;;3.40;;
15043;SDS011;7619;48.562;8.910;2023-03-12T05:34:34;7.40;;;3.43;;
15043;SDS011;7619;48.562;8.910;2023-03-12T05:37:04;7.13;;;3.53;;
15043;SDS011;7619;48.562;8.910;2023-03-12T05:39:32;8.13;;;3.83;;
15043;SDS011;7619;48.562;8.910;2023-03-12T05:42:00;5.60;;;3.77;;
15043;SDS011;7619;48.562;8.910;2023-03-12T05:44:29;8.13;;;4.20;;
15043;SDS011;7619;48.562;8.910;2023-03-12T05:47:00;5.37;;;3.77;;
15043;SDS011;7619;48.562;8.910;2023-03-12T05:49:29;10.93;;;4.77;;
15043;SDS011;7619;48.562;8.910;2023-03-12T05:51:56;6.20;;;4.37;;
15043;SDS011;7619;48.562;8.910;2023-03-12T05:54:26;8.23;;;5.10;;
15043;SDS011;7619;48.562;8.910;2023-03-12T05:56:54;7.03;;;4.10;;
15043;SDS011;7619;48.562;8.910;2023-03-12T05:59:22;10.33;;;4.50;;
15043;SDS011;7619;48.562;8.910;2023-03-12T06:01:51;8.13;;;4.30;;
15043;SDS011;7619;48.562;8.910;2023-03-12T06:04:21;8.33;;;4.40;;
15043;SDS011;7619;48.562;8.910;2023-03-12T06:06:50;7.23;;;4.73;;
15043;SDS011;7619;48.562;8.910;2023-03-12T06:09:19;6.03;;;3.83;;
15043;SDS011;7619;48.562;8.910;2023-03-12T06:11:48;5.57;;;3.67;;
15043;SDS011;7619;48.562;8.910;2023-03-12T06:14:17;7.43;;;4.07;;
15043;SDS011;7619;48.562;8.910;2023-03-12T06:16:45;8.87;;;3.63;;
15043;SDS011;7619;48.562;8.910;2023-03-12T06:19:13;6.70;;;4.23;;
15043;SDS011;7619;48.562;8.910;2023-03-12T06:21:41;5.53;;;3.77;;
15043;SDS011;7619;48.562;8.910;2023-03-12T06:24:09;7.90;;;4.47;;
15043;SDS011;7619;48.562;8.910;2023-03-12T06:26:39;7.53;;;4.13;;
15043;SDS011;7619;48.562;8.910;2023-03-12T06:29:07;6.63;;;3.70;;
15043;SDS011;7619;48.562;8.910;2023-03-12T06:31:35;8.93;;;4.87;;
15043;SDS011;7619;48.562;8.910;2023-03-12T06:34:05;7.63;;;4.57;;
15043;SDS011;7619;48.562;8.910;2023-03-12T06:36:33;6.23;;;4.10;;
15043;SDS011;7619;48.562;8.910;2023-03-12T06:41:38;4.23;;;3.53;;
15043;SDS011;7619;48.562;8.910;2023-03-12T06:44:07;5.30;;;3.83;;
15043;SDS011;7619;48.562;8.910;2023-03-12T06:46:35;4.30;;;3.43;;
15043;SDS011;7619;48.562;8.910;2023-03-12T06:49:03;4.47;;;3.10;;
15043;SDS011;7619;48.562;8.910;2023-03-12T06:51:31;5.20;;;3.50;;
15043;SDS011;7619;48.562;8.910;2023-03-12T06:53:59;5.97;;;3.83;;
15043;SDS011;7619;48.562;8.910;2023-03-12T06:56:27;4.97;;;3.80;;
15043;SDS011;7619;48.562;8.910;2023-03-12T06:58:57;5.77;;;3.47;;
15043;SDS011;7619;48.562;8.910;2023-03-12T07:01:25;7.87;;;3.77;;
15043;SDS011;7619;48.562;8.910;2023-03-12T07:03:53;7.70;;;3.63;;
15043;SDS011;7619;48.562;8.910;2023-03-12T07:06:22;5.70;;;4.13;;
15043;SDS011;7619;48.562;8.910;2023-03-12T07:08:52;5.00;;;4.13;;
15043;SDS011;7619;48.562;8.910;2023-03-12T07:11:20;5.27;;;4.00;;
15043;SDS011;7619;48.562;8.910;2023-03-12T07:13:48;4.57;;;3.93;;
15043;SDS011;7619;48.562;8.910;2023-03-12T07:16:16;9.47;;;4.13;;
15043;SDS011;7619;48.562;8.910;2023-03-12T07:18:46;9.57;;;3.90;;
15043;SDS011;7619;48.562;8.910;2023-03-12T07:21:14;8.83;;;4.17;;
15043;SDS011;7619;48.562;8.910;2023-03-12T07:23:43;7.33;;;3.50;;
15043;SDS011;7619;48.562;8.910;2023-03-12T07:26:11;4.17;;;3.33;;
15043;SDS011;7619;48.562;8.910;2023-03-12T07:28:40;5.20;;;3.87;;
15043;SDS011;7619;48.562;8.910;2023-03-12T07:31:08;6.20;;;4.07;;
15043;SDS011;7619;48.562;8.910;2023-03-12T07:33:36;4.20;;;3.37;;
15043;SDS011;7619;48.562;8.910;2023-03-12T07:36:05;4.53;;;3.40;;
15043;SDS011;7619;48.562;8.910;2023-03-12T07:38:32;7.63;;;3.93;;
15043;SDS011;7619;48.562;8.910;2023-03-12T07:41:02;5.90;;;3.73;;
15043;SDS011;7619;48.562;8.910;2023-03-12T07:43:30;5.23;;;3.30;;
15043;SDS011;7619;48.562;8.910;2023-03-12T07:45:58;5.77;;;3.37;;
15043;SDS011;7619;48.562;8.910;2023-03-12T07:48:26;5.53;;;3.77;;
15043;SDS011;7619;48.562;8.910;2023-03-12T07:50:54;5.33;;;3.57;;
15043;SDS011;7619;48.562;8.910;2023-03-12T07:53:22;6.37;;;3.90;;
15043;SDS011;7619;48.562;8.910;2023-03-12T07:55:50;6.70;;;4.00;;
15043;SDS011;7619;48.562;8.910;2023-03-12T08:01:05;10.47;;;4.33;;
15043;SDS011;7619;48.562;8.910;2023-03-12T08:03:34;8.40;;;4.70;;
15043;SDS011;7619;48.562;8.910;2023-03-12T08:06:03;7.37;;;4.00;;
15043;SDS011;7619;48.562;8.910;2023-03-12T08:08:31;8.07;;;3.80;;
15043;SDS011;7619;48.562;8.910;2023-03-12T08:11:00;17.83;;;9.53;;
15043;SDS011;7619;48.562;8.910;2023-03-12T08:13:27;15.63;;;9.03;;
15043;SDS011;7619;48.562;8.910;2023-03-12T08:15:57;7.20;;;4.80;;
15043;SDS011;7619;48.562;8.910;2023-03-12T08:18:25;16.27;;;9.73;;
15043;SDS011;7619;48.562;8.910;2023-03-12T08:20:55;8.43;;;3.90;;
15043;SDS011;7619;48.562;8.910;2023-03-12T08:23:25;5.10;;;3.23;;
15043;SDS011;7619;48.562;8.910;2023-03-12T08:25:53;7.60;;;3.93;;
15043;SDS011;7619;48.562;8.910;2023-03-12T08:28:22;5.37;;;3.63;;
15043;SDS011;7619;48.562;8.910;2023-03-12T08:33:29;4.80;;;3.53;;
15043;SDS011;7619;48.562;8.910;2023-03-12T08:35:58;4.00;;;3.23;;
15043;SDS011;7619;48.562;8.910;2023-03-12T08:38:27;3.73;;;3.03;;
15043;SDS011;7619;48.562;8.910;2023-03-12T08:40:56;4.53;;;3.20;;
15043;SDS011;7619;48.562;8.910;2023-03-12T08:43:25;3.93;;;3.37;;
15043;SDS011;7619;48.562;8.910;2023-03-12T08:45:56;4.63;;;3.53;;
15043;SDS011;7619;48.562;8.910;2023-03-12T08:48:24;4.20;;;3.80;;
15043;SDS011;7619;48.562;8.910;2023-03-12T08:50:54;5.53;;;3.40;;
15043;SDS011;7619;48.562;8.910;2023-03-12T08:53:22;5.70;;;3.20;;
15043;SDS011;7619;48.562;8.910;2023-03-12T08:55:54;7.60;;;3.80;;
15043;SDS011;7619;48.562;8.910;2023-03-12T08:58:22;5.00;;;3.53;;
15043;SDS011;7619;48.562;8.910;2023-03-12T09:00:52;7.07;;;4.00;;
15043;SDS011;7619;48.562;8.910;2023-03-12T09:03:22;4.87;;;3.67;;
15043;SDS011;7619;48.562;8.910;2023-03-12T09:06:01;5.47;;;3.77;;
15043;SDS011;7619;48.562;8.910;2023-03-12T09:08:29;6.40;;;4.13;;
15043;SDS011;7619;48.562;8.910;2023-03-12T09:10:59;5.67;;;3.70;;
15043;SDS011;7619;48.562;8.910;2023-03-12T09:13:28;5.27;;;3.70;;
15043;SDS011;7619;48.562;8.910;2023-03-12T09:15:59;5.17;;;3.63;;
15043;SDS011;7619;48.562;8.910;2023-03-12T09:18:28;7.43;;;3.70;;
15043;SDS011;7619;48.562;8.910;2023-03-12T09:20:58;6.23;;;3.57;;
15043;SDS011;7619;48.562;8.910;2023-03-12T09:23:26;5.07;;;3.87;;
15043;SDS011;7619;48.562;8.910;2023-03-12T09:25:54;5.53;;;3.50;;
15043;SDS011;7619;48.562;8.910;2023-03-12T09:28:23;4.70;;;3.57;;
15043;SDS011;7619;48.562;8.910;2023-03-12T09:30:51;4.47;;;3.47;;
15043;SDS011;7619;48.562;8.910;2023-03-12T09:33:20;5.43;;;4.00;;
15043;SDS011;7619;48.562;8.910;2023-03-12T09:35:54;4.47;;;3.73;;
15043;SDS011;7619;48.562;8.910;2023-03-12T09:38:22;5.20;;;3.87;;
15043;SDS011;7619;48.562;8.910;2023-03-12T09:40:52;5.67;;;3.63;;
15043;SDS011;7619;48.562;8.910;2023-03-12T09:43:23;2.40;;;2.20;;
15043;SDS011;7619;48.562;8.910;2023-03-12T09:45:51;3.30;;;2.47;;
15043;SDS011;7619;48.562;8.910;2023-03-12T09:48:24;4.40;;;3.13;;
15043;SDS011;7619;48.562;8.910;2023-03-12T09:50:54;4.30;;;3.33;;
15043;SDS011;7619;48.562;8.910;2023-03-12T09:53:26;5.67;;;4.10;;
15043;SDS011;7619;48.562;8.910;2023-03-12T09:55:55;4.93;;;3.80;;
15043;SDS011;7619;48.562;8.910;2023-03-12T09:58:26;8.00;;;4.30;;
15043;SDS011;7619;48.562;8.910;2023-03-12T10:01:11;4.00;;;3.53;;
15043;SDS011;7619;48.562;8.910;2023-03-12T10:03:45;4.60;;;3.60;;
15043;SDS011;7619;48.562;8.910;2023-03-12T10:06:15;5.37;;;3.57;;
15043;SDS011;7619;48.562;8.910;2023-03-12T10:08:49;3.00;;;2.67;;
15043;SDS011;7619;48.562;8.910;2023-03-12T10:11:26;5.50;;;3.83;;
15043;SDS011;7619;48.562;8.910;2023-03-12T10:13:56;4.47;;;3.67;;
15043;SDS011;7619;48.562;8.910;2023-03-12T10:16:41;3.90;;;2.53;;
15043;SDS011;7619;48.562;8.910;2023-03-12T10:19:17;3.93;;;2.57;;
15043;SDS011;7619;48.562;8.910;2023-03-12T10:21:50;2.80;;;2.00;;
15043;SDS011;7619;48.562;8.910;2023-03-12T10:24:43;2.87;;;1.90;;
15043;SDS011;7619;48.562;8.910;2023-03-12T10:27:16;2.93;;;2.10;;
15043;SDS011;7619;48.562;8.910;2023-03-12T10:29:53;2.33;;;1.60;;
15043;SDS011;7619;48.562;8.910;2023-03-12T10:32:25;1.57;;;1.33;;
15043;SDS011;7619;48.562;8.910;2023-03-12T10:34:58;2.20;;;1.20;;
15043;SDS011;7619;48.562;8.910;2023-03-12T10:37:27;1.47;;;1.10;;
15043;SDS011;7619;48.562;8.910;2023-03-12T10:39:55;0.67;;;0.67;;
15043;SDS011;7619;48.562;8.910;2023-03-12T10:42:33;2.00;;;0.80;;
15043;SDS011;7619;48.562;8.910;2023-03-12T10:45:09;1.37;;;0.73;;
15043;SDS011;7619;48.562;8.910;2023-03-12T10:47:35;5.20;;;1.03;;
15043;SDS011;7619;48.562;8.910;2023-03-12T10:50:14;1.60;;;0.57;;
15043;SDS011;7619;48.562;8.910;2023-03-12T10:52:42;0.77;;;0.60;;
15043;SDS011;7619;48.562;8.910;2023-03-12T10:55:18;2.40;;;0.80;;
15043;SDS011;7619;48.562;8.910;2023-03-12T10:57:48;2.47;;;0.60;;
15043;SDS011;7619;48.562;8.910;2023-03-12T11:00:19;2.73;;;0.90;;
15043;SDS011;7619;48.562;8.910;2023-03-12T11:02:57;1.80;;;0.60;;
15043;SDS011;7619;48.562;8.910;2023-03-12T11:05:46;6.17;;;1.13;;
15043;SDS011;7619;48.562;8.910;2023-03-12T11:08:19;3.50;;;0.90;;
15043;SDS011;7619;48.562;8.910;2023-03-12T11:10:47;1.10;;;0.60;;
15043;SDS011;7619;48.562;8.910;2023-03-12T11:13:26;3.77;;;1.00;;
15043;SDS011;7619;48.562;8.910;2023-03-12T11:15:54;3.50;;;0.57;;
15043;SDS011;7619;48.562;8.910;2023-03-12T11:18:29;4.27;;;1.00;;
15043;SDS011;7619;48.562;8.910;2023-03-12T11:21:14;3.30;;;1.37;;
15043;SDS011;7619;48.562;8.910;2023-03-12T11:23:42;2.00;;;0.77;;
15043;SDS011;7619;48.562;8.910;2023-03-12T11:26:15;1.00;;;0.70;;
15043;SDS011;7619;48.562;8.910;2023-03-12T11:28:45;2.30;;;0.60;;
15043;SDS011;7619;48.562;8.910;2023-03-12T11:31:20;3.40;;;0.90;;
15043;SDS011;7619;48.562;8.910;2023-03-12T11:33:48;1.93;;;0.80;;
15043;SDS011;7619;48.562;8.910;2023-03-12T11:36:25;3.13;;;0.90;;
15043;SDS011;7619;48.562;8.910;2023-03-12T11:38:55;1.67;;;0.80;;
15043;SDS011;7619;48.562;8.910;2023-03-12T11:41:26;3.93;;;1.17;;
15043;SDS011;7619;48.562;8.910;2023-03-12T11:44:22;3.37;;;1.07;;
15043;SDS011;7619;48.562;8.910;2023-03-12T11:46:53;2.10;;;1.00;;
15043;SDS011;7619;48.562;8.910;2023-03-12T11:49:24;2.73;;;0.53;;
15043;SDS011;7619;48.562;8.910;2023-03-12T11:52:00;2.80;;;0.97;;
15043;SDS011;7619;48.562;8.910;2023-03-12T11:54:39;2.20;;;0.97;;
15043;SDS011;7619;48.562;8.910;2023-03-12T11:57:09;1.67;;;0.67;;
15043;SDS011;7619;48.562;8.910;2023-03-12T11:59:44;4.07;;;1.20;;
15043;SDS011;7619;48.562;8.910;2023-03-12T12:02:15;2.23;;;0.80;;
15043;SDS011;7619;48.562;8.910;2023-03-12T12:04:48;4.00;;;1.10;;
15043;SDS011;7619;48.562;8.910;2023-03-12T12:07:35;2.50;;;1.20;;
15043;SDS011;7619;48.562;8.910;2023-03-12T12:10:05;3.17;;;1.40;;
15043;SDS011;7619;48.562;8.910;2023-03-12T12:12:42;4.27;;;0.90;;
15043;SDS011;7619;48.562;8.910;2023-03-12T12:15:13;1.93;;;1.13;;
15043;SDS011;7619;48.562;8.910;2023-03-12T12:17:54;2.93;;;0.90;;
15043;SDS011;7619;48.562;8.910;2023-03-12T12:23:13;2.40;;;1.20;;
15043;SDS011;7619;48.562;8.910;2023-03-12T12:25:50;2.40;;;1.20;;
15043;SDS011;7619;48.562;8.910;2023-03-12T12:31:13;6.57;;;0.73;;
15043;SDS011;7619;48.562;8.910;2023-03-12T12:33:54;4.43;;;1.60;;
15043;SDS011;7619;48.562;8.910;2023-03-12T12:36:37;2.00;;;0.70;;
15043;SDS011;7619;48.562;8.910;2023-03-12T12:39:08;3.73;;;0.97;;
15043;SDS011;7619;48.562;8.910;2023-03-12T12:41:40;3.40;;;1.00;;
15043;SDS011;7619;48.562;8.910;2023-03-12T12:44:13;4.13;;;1.13;;
15043;SDS011;7619;48.562;8.910;2023-03-12T12:46:43;1.33;;;0.90;;
15043;SDS011;7619;48.562;8.910;2023-03-12T12:49:17;2.00;;;0.80;;
15043;SDS011;7619;48.562;8.910;2023-03-12T12:51:47;3.13;;;0.93;;
15043;SDS011;7619;48.562;8.910;2023-03-12T12:54:17;3.90;;;0.93;;
15043;SDS011;7619;48.562;8.910;2023-03-12T12:56:46;2.87;;;1.07;;
15043;SDS011;7619;48.562;8.910;2023-03-12T13:02:02;5.83;;;0.87;;
15043;SDS011;7619;48.562;8.910;2023-03-12T13:04:32;1.20;;;0.90;;
15043;SDS011;7619;48.562;8.910;2023-03-12T13:07:02;1.33;;;0.83;;
15043;SDS011;7619;48.562;8.910;2023-03-12T13:09:35;1.90;;;0.90;;
15043;SDS011;7619;48.562;8.910;2023-03-12T13:12:08;0.73;;;0.70;;
15043;SDS011;7619;48.562;8.910;2023-03-12T13:14:42;3.17;;;0.57;;
15043;SDS011;7619;48.562;8.910;2023-03-12T13:17:26;1.67;;;1.00;;
15043;SDS011;7619;48.562;8.910;2023-03-12T13:19:58;2.83;;;0.80;;
15043;SDS011;7619;48.562;8.910;2023-03-12T13:22:28;5.70;;;1.30;;
15043;SDS011;7619;48.562;8.910;2023-03-12T13:25:02;5.07;;;1.23;;
15043;SDS011;7619;48.562;8.910;2023-03-12T13:27:36;6.47;;;1.40;;
15043;SDS011;7619;48.562;8.910;2023-03-12T13:30:30;3.07;;;1.03;;
15043;SDS011;7619;48.562;8.910;2023-03-12T13:33:09;4.93;;;1.10;;
15043;SDS011;7619;48.562;8.910;2023-03-12T13:35:40;1.37;;;1.07;;
15043;SDS011;7619;48.562;8.910;2023-03-12T13:38:10;4.33;;;0.60;;
15043;SDS011;7619;48.562;8.910;2023-03-12T13:46:42;1.83;;;0.77;;
15043;SDS011;7619;48.562;8.910;2023-03-12T13:49:13;2.50;;;1.07;;
15043;SDS011;7619;48.562;8.910;2023-03-12T13:51:46;1.60;;;0.80;;
15043;SDS011;7619;48.562;8.910;2023-03-12T13:54:25;2.67;;;1.10;;
15043;SDS011;7619;48.562;8.910;2023-03-12T13:56:58;2.60;;;0.77;;
15043;SDS011;7619;48.562;8.910;2023-03-12T13:59:29;3.90;;;1.00;;
15043;SDS011;7619;48.562;8.910;2023-03-12T14:02:00;3.13;;;1.00;;
15043;SDS011;7619;48.562;8.910;2023-03-12T14:10:21;1.00;;;0.73;;
15043;SDS011;7619;48.562;8.910;2023-03-12T14:12:52;1.50;;;0.90;;
15043;SDS011;7619;48.562;8.910;2023-03-12T14:15:23;2.43;;;1.00;;
15043;SDS011;7619;48.562;8.910;2023-03-12T14:17:56;2.50;;;0.93;;
15043;SDS011;7619;48.562;8.910;2023-03-12T14:20:25;2.43;;;1.00;;
15043;SDS011;7619;48.562;8.910;2023-03-12T14:22:55;3.93;;;1.17;;
15043;SDS011;7619;48.562;8.910;2023-03-12T14:25:26;1.40;;;0.60;;
15043;SDS011;7619;48.562;8.910;2023-03-12T14:28:10;1.50;;;0.80;;
15043;SDS011;7619;48.562;8.910;2023-03-12T14:30:51;2.17;;;1.27;;
15043;SDS011;7619;48.562;8.910;2023-03-12T14:33:19;1.70;;;0.57;;
15043;SDS011;7619;48.562;8.910;2023-03-12T14:35:48;2.37;;;0.73;;
15043;SDS011;7619;48.562;8.910;2023-03-12T14:38:23;1.83;;;0.90;;
15043;SDS011;7619;48.562;8.910;2023-03-12T14:40:52;1.03;;;0.70;;
15043;SDS011;7619;48.562;8.910;2023-03-12T14:43:24;2.83;;;1.03;;
15043;SDS011;7619;48.562;8.910;2023-03-12T14:45:56;1.70;;;0.90;;
15043;SDS011;7619;48.562;8.910;2023-03-12T14:48:27;1.77;;;0.60;;
15043;SDS011;7619;48.562;8.910;2023-03-12T14:50:58;2.43;;;1.17;;
15043;SDS011;7619;48.562;8.910;2023-03-12T14:53:29;0.50;;;0.43;;
15043;SDS011;7619;48.562;8.910;2023-03-12T14:56:01;2.10;;;0.63;;
15043;SDS011;7619;48.562;8.910;2023-03-12T14:58:30;1.17;;;0.63;;
15043;SDS011;7619;48.562;8.910;2023-03-12T15:01:02;1.90;;;0.93;;
15043;SDS011;7619;48.562;8.910;2023-03-12T15:03:32;1.93;;;0.73;;
15043;SDS011;7619;48.562;8.910;2023-03-12T15:06:01;3.20;;;1.03;;
15043;SDS011;7619;48.562;8.910;2023-03-12T15:08:29;3.87;;;1.00;;
15043;SDS011;7619;48.562;8.910;2023-03-12T15:10:58;2.70;;;0.93;;
15043;SDS011;7619;48.562;8.910;2023-03-12T15:13:27;1.67;;;0.70;;
15043;SDS011;7619;48.562;8.910;2023-03-12T15:15:56;2.53;;;0.60;;
15043;SDS011;7619;48.562;8.910;2023-03-12T15:18:26;1.73;;;0.60;;
15043;SDS011;7619;48.562;8.910;2023-03-12T15:20:54;2.00;;;0.90;;
15043;SDS011;7619;48.562;8.910;2023-03-12T15:23:27;2.80;;;0.70;;
15043;SDS011;7619;48.562;8.910;2023-03-12T15:29:14;2.87;;;1.43;;
15043;SDS011;7619;48.562;8.910;2023-03-12T15:31:43;3.00;;;0.77;;
15043;SDS011;7619;48.562;8.910;2023-03-12T15:34:13;9.83;;;1.30;;
15043;SDS011;7619;48.562;8.910;2023-03-12T15:36:45;4.63;;;1.10;;
15043;SDS011;7619;48.562;8.910;2023-03-12T15:39:22;3.13;;;1.00;;
15043;SDS011;7619;48.562;8.910;2023-03-12T15:41:45;1.33;;;0.87;;
15043;SDS011;7619;48.562;8.910;2023-03-12T15:44:16;1.47;;;0.83;;
15043;SDS011;7619;48.562;8.910;2023-03-12T15:46:48;3.77;;;0.97;;
15043;SDS011;7619;48.562;8.910;2023-03-12T15:49:19;2.97;;;1.10;;
15043;SDS011;7619;48.562;8.910;2023-03-12T15:51:58;2.83;;;1.50;;